createdAt,value
2019-05-14T00:02:21.651Z,1.07
2019-05-14T00:04:54.917Z,1.20
2019-05-14T00:07:24.688Z,1.33
2019-05-14T00:09:55.305Z,1.00
2019-05-14T00:12:31.564Z,1.10
2019-05-14T00:15:02.026Z,0.90
2019-05-14T00:17:33.254Z,1.17
2019-05-14T00:20:09.829Z,0.87
2019-05-14T00:22:43.925Z,1.17
2019-05-14T00:25:14.469Z,1.13
2019-05-14T00:27:45.090Z,1.33
2019-05-14T00:30:17.987Z,1.33
2019-05-14T00:32:48.548Z,1.03
2019-05-14T00:35:21.384Z,1.17
2019-05-14T00:37:52.208Z,0.90
2019-05-14T00:40:23.267Z,1.13
2019-05-14T00:42:53.996Z,1.00
2019-05-14T00:45:24.592Z,1.20
2019-05-14T00:47:56.196Z,1.07
2019-05-14T00:50:26.873Z,0.73
2019-05-14T00:52:57.586Z,0.93
2019-05-14T00:55:31.839Z,1.30
2019-05-14T00:58:03.440Z,0.90
2019-05-14T01:00:34.033Z,1.03
2019-05-14T01:03:04.997Z,1.17
2019-05-14T01:05:37.639Z,0.90
2019-05-14T01:08:07.962Z,0.90
2019-05-14T01:10:38.600Z,0.97
2019-05-14T01:13:13.022Z,1.30
2019-05-14T01:15:43.617Z,1.60
2019-05-14T01:18:14.212Z,1.30
2019-05-14T01:20:44.814Z,1.63
2019-05-14T01:23:15.415Z,1.27
2019-05-14T01:25:47.950Z,1.20
2019-05-14T01:28:18.980Z,1.53
2019-05-14T01:30:51.746Z,1.40
2019-05-14T01:33:21.999Z,1.40
2019-05-14T01:35:52.607Z,1.60
2019-05-14T01:38:23.566Z,1.33
2019-05-14T01:40:54.156Z,1.40
2019-05-14T01:43:26.290Z,1.70
2019-05-14T01:46:02.046Z,1.50
2019-05-14T01:48:35.336Z,1.50
2019-05-14T01:51:33.521Z,1.50
2019-05-14T01:54:04.670Z,1.80
2019-05-14T01:56:35.258Z,1.60
2019-05-14T01:59:06.211Z,2.13
2019-05-14T02:01:36.833Z,2.00
2019-05-14T02:04:07.461Z,1.83
2019-05-14T02:06:38.121Z,1.60
2019-05-14T02:09:10.958Z,1.77
2019-05-14T02:11:41.735Z,1.87
2019-05-14T02:14:12.809Z,1.43
2019-05-14T02:16:43.389Z,1.30
2019-05-14T02:19:14.020Z,1.27
2019-05-14T02:21:44.618Z,1.13
2019-05-14T02:24:15.318Z,1.10
2019-05-14T02:26:45.937Z,0.63
2019-05-14T02:29:16.541Z,0.73
2019-05-14T02:31:50.173Z,0.70
2019-05-14T02:34:19.957Z,0.50
2019-05-14T02:36:50.749Z,0.90
2019-05-14T02:39:21.369Z,0.80
2019-05-14T02:41:52.053Z,0.50
2019-05-14T02:44:23.186Z,0.60
2019-05-14T02:46:54.249Z,0.50
2019-05-14T02:49:25.858Z,0.60
2019-05-14T02:51:59.012Z,0.70
2019-05-14T02:54:29.929Z,0.60
2019-05-14T02:57:00.687Z,0.40
2019-05-14T02:59:31.318Z,0.60
2019-05-14T03:02:03.483Z,0.37
2019-05-14T03:04:34.176Z,0.50
2019-05-14T03:07:10.696Z,0.57
2019-05-14T03:09:40.652Z,0.57
2019-05-14T03:12:12.569Z,0.80
2019-05-14T03:14:45.296Z,0.90
2019-05-14T03:17:19.579Z,0.57
2019-05-14T03:19:49.628Z,1.27
2019-05-14T03:22:28.906Z,0.50
2019-05-14T03:24:55.827Z,0.60
2019-05-14T03:27:30.106Z,0.70
2019-05-14T03:30:01.328Z,1.00
2019-05-14T03:32:33.152Z,0.93
2019-05-14T03:35:13.293Z,0.90
2019-05-14T03:37:41.651Z,1.00
2019-05-14T03:40:12.468Z,0.67
2019-05-14T03:42:43.043Z,0.80
2019-05-14T03:45:14.477Z,1.10
2019-05-14T03:47:45.513Z,0.90
